Time;durP1;ratioP1;P1;durP2;ratioP2;P2;SDS_P1;SDS_P2;PMS_P1;PMS_P2;Temp;Humidity;BMP_temperature;BMP_pressure;BME280_temperature;BME280_humidity;BME280_pressure;Samples;Min_cycle;Max_cycle;Signal;HPM_P1;HPM_P2
2022/03/30 00:01:56;;;;;;;23.13;16.27;;;;;;;12.34;45.55;99037.13;10354495;28;20491;-61
2022/03/30 00:06:58;;;;;;;19.27;16.25;;;;;;;12.29;45.67;99035.97;10360641;28;20060;-61
2022/03/30 00:11:59;;;;;;;18.73;15.90;;;;;;;12.36;45.45;99020.97;10354750;28;20041;-61
2022/03/30 00:17:01;;;;;;;20.25;17.33;;;;;;;12.32;45.65;99036.44;10361672;28;20049;-60
2022/03/30 00:22:02;;;;;;;20.10;17.10;;;;;;;12.24;45.82;99008.94;10360046;28;20203;-61
2022/03/30 00:27:06;;;;;;;20.73;17.48;;;;;;;12.12;45.99;99013.75;10354599;28;20077;-60
2022/03/30 00:32:07;;;;;;;21.48;16.65;;;;;;;12.12;46.42;99008.44;10355391;28;20049;-61
2022/03/30 00:37:09;;;;;;;20.52;17.98;;;;;;;12.04;46.50;98998.56;10358657;28;20495;-60
2022/03/30 00:42:18;;;;;;;19.80;16.83;;;;;;;12.06;46.82;98993.91;10355014;28;20061;-63
2022/03/30 00:47:25;;;;;;;19.90;16.85;;;;;;;12.03;46.98;99005.72;10356258;28;20124;-61
2022/03/30 00:52:26;;;;;;;23.80;19.50;;;;;;;12.02;47.37;98993.41;10351607;28;20041;-61
2022/03/30 00:57:29;;;;;;;19.58;17.48;;;;;;;11.93;47.59;98994.38;10359787;28;20041;-63
2022/03/30 01:02:31;;;;;;;22.25;17.92;;;;;;;11.80;48.14;98978.81;10358444;28;20129;-61
2022/03/30 01:07:33;;;;;;;21.88;19.15;;;;;;;11.75;48.49;98982.97;10355708;28;20069;-61
2022/03/30 01:12:38;;;;;;;22.80;17.52;;;;;;;11.59;47.96;98941.94;10351417;28;20136;-61
2022/03/30 01:17:40;;;;;;;24.15;18.95;;;;;;;11.77;48.58;98984.47;10356190;28;20049;-62
2022/03/30 01:22:42;;;;;;;25.02;19.17;;;;;;;11.77;49.13;98978.28;10352733;28;20057;-61
2022/03/30 01:27:44;;;;;;;20.90;18.63;;;;;;;11.39;49.09;98919.22;10352321;28;20424;-61
2022/03/30 01:32:45;;;;;;;24.05;19.13;;;;;;;11.61;49.46;98953.25;10356054;28;20096;-61
2022/03/30 01:37:47;;;;;;;29.33;19.80;;;;;;;11.59;49.75;98941.94;10353092;28;20489;-61
2022/03/30 01:42:48;;;;;;;23.20;19.75;;;;;;;11.48;50.14;98942.22;10354407;28;20049;-61
2022/03/30 01:47:57;;;;;;;23.48;19.35;;;;;;;11.36;50.73;98927.53;10355410;28;20049;-61
2022/03/30 01:52:59;;;;;;;22.30;19.83;;;;;;;11.43;50.46;98924.06;10357692;28;20137;-61
2022/03/30 01:58:02;;;;;;;22.58;20.17;;;;;;;11.37;50.98;98908.72;10356384;28;20114;-60
2022/03/30 02:03:03;;;;;;;25.13;19.25;;;;;;;11.11;50.92;98880.34;10351492;28;20049;-60
2022/03/30 02:08:05;;;;;;;24.02;20.08;;;;;;;11.36;50.77;98916.88;10355404;28;20049;-61
2022/03/30 02:13:07;;;;;;;25.20;20.13;;;;;;;11.42;50.77;98908.25;10354261;28;20045;-61
2022/03/30 02:18:09;;;;;;;25.48;18.73;;;;;;;11.25;50.88;98876.22;10353580;28;20058;-61
2022/03/30 02:23:10;;;;;;;26.00;20.92;;;;;;;11.34;51.15;98913.56;10356715;28;20199;-60
2022/03/30 02:28:13;;;;;;;24.00;19.70;;;;;;;11.13;52.45;98910.28;10356306;28;20213;-61
2022/03/30 02:33:14;;;;;;;23.52;19.63;;;;;;;11.29;52.00;98904.22;10349186;28;20061;-61
2022/03/30 02:38:16;;;;;;;25.50;20.15;;;;;;;11.23;52.66;98919.97;10349164;28;20041;-61
2022/03/30 02:43:19;;;;;;;32.10;21.90;;;;;;;11.30;53.05;98902.38;10344862;28;20070;-60
2022/03/30 02:48:28;;;;;;;26.27;21.40;;;;;;;11.24;54.11;98897.69;10352298;28;20046;-60
2022/03/30 02:53:30;;;;;;;25.50;21.42;;;;;;;11.31;54.70;98899.53;10349839;28;20399;-61
2022/03/30 02:58:33;;;;;;;25.95;21.98;;;;;;;10.91;56.42;98901.06;10358130;28;20136;-60
2022/03/30 03:03:34;;;;;;;27.80;22.60;;;;;;;11.04;56.50;98889.13;10353337;28;20416;-62
2022/03/30 03:08:36;;;;;;;24.85;21.48;;;;;;;11.12;55.94;98873.16;10349196;28;20417;-61
2022/03/30 03:13:37;;;;;;;27.23;22.10;;;;;;;10.95;56.15;98889.06;10349511;28;20285;-60
2022/03/30 03:18:39;;;;;;;28.38;22.65;;;;;;;10.95;56.08;98882.94;10354193;28;20049;-62
2022/03/30 03:23:41;;;;;;;28.13;21.77;;;;;;;10.80;55.47;98848.09;10352480;28;20060;-61
2022/03/30 03:28:42;;;;;;;26.45;22.13;;;;;;;10.86;56.50;98875.91;10350341;28;20531;-61
2022/03/30 03:33:44;;;;;;;26.25;21.58;;;;;;;10.87;55.91;98877.56;10357967;28;20213;-63
2022/03/30 03:38:45;;;;;;;25.85;21.20;;;;;;;10.90;56.02;98870.09;10356851;28;20056;-62
2022/03/30 03:43:47;;;;;;;26.55;22.38;;;;;;;10.77;56.96;98848.41;10360860;28;20523;-61
2022/03/30 03:48:49;;;;;;;30.58;24.50;;;;;;;10.64;58.00;98816.06;10360726;28;20532;-61
2022/03/30 03:53:50;;;;;;;26.33;20.65;;;;;;;10.85;58.39;98839.63;10359486;28;20079;-61
2022/03/30 03:58:52;;;;;;;26.85;22.45;;;;;;;10.64;59.84;98832.03;10359538;28;20073;-61
2022/03/30 04:03:53;;;;;;;27.33;22.73;;;;;;;10.73;60.20;98847.91;10360378;28;20108;-61
2022/03/30 04:08:55;;;;;;;28.08;22.40;;;;;;;10.45;61.44;98849.91;10360606;28;20042;-60
2022/03/30 04:13:56;;;;;;;26.98;23.83;;;;;;;10.34;62.20;98855.47;10359179;28;20053;-61
2022/03/30 04:18:58;;;;;;;27.38;23.10;;;;;;;10.33;62.96;98859.09;10358160;28;20132;-60
2022/03/30 04:23:59;;;;;;;27.85;23.17;;;;;;;10.00;63.06;98803.03;10359543;28;20132;-61
2022/03/30 04:29:01;;;;;;;29.25;25.27;;;;;;;10.22;63.53;98845.06;10356397;28;20059;-60
2022/03/30 04:34:02;;;;;;;28.73;23.17;;;;;;;10.22;62.62;98834.44;10355505;28;20048;-60
2022/03/30 04:39:04;;;;;;;27.75;23.58;;;;;;;10.02;63.30;98801.06;10355716;28;20251;-60
2022/03/30 04:44:05;;;;;;;27.13;23.73;;;;;;;10.01;64.10;98828.63;10351944;28;20049;-61
2022/03/30 04:49:09;;;;;;;30.00;24.65;;;;;;;9.77;65.47;98830.09;10329195;28;20049;-62
2022/03/30 04:54:11;;;;;;;30.65;24.73;;;;;;;9.74;65.75;98825.06;10339974;28;20053;-63
2022/03/30 04:59:12;;;;;;;31.65;23.92;;;;;;;9.54;64.85;98781.91;10342178;28;20103;-63
2022/03/30 05:04:13;;;;;;;34.47;25.77;;;;;;;9.78;65.70;98815.81;10345071;28;20050;-62
2022/03/30 05:09:15;;;;;;;30.45;25.80;;;;;;;9.73;65.35;98826.91;10347588;28;20053;-63
2022/03/30 05:14:16;;;;;;;30.65;25.70;;;;;;;9.75;65.82;98832.06;10341250;28;20076;-61
2022/03/30 05:19:18;;;;;;;30.55;23.48;;;;;;;9.78;66.27;98829.09;10344361;28;20057;-61
2022/03/30 05:24:20;;;;;;;32.75;27.17;;;;;;;9.66;67.71;98833.00;10343571;28;20531;-62
2022/03/30 05:29:21;;;;;;;33.58;27.88;;;;;;;9.63;68.16;98830.63;10346362;28;20104;-62
2022/03/30 05:34:24;;;;;;;31.92;27.23;;;;;;;9.54;69.40;98838.53;10348052;28;20054;-61
2022/03/30 05:39:26;;;;;;;38.47;27.92;;;;;;;9.61;69.64;98840.56;10338866;28;20049;-61
2022/03/30 05:44:27;;;;;;;36.25;27.60;;;;;;;9.52;69.88;98842.34;10339063;28;20463;-63
2022/03/30 05:49:28;;;;;;;28.83;23.90;;;;;;;9.80;73.96;98847.56;10333786;28;20091;-63
2022/03/30 05:54:31;;;;;;;33.30;27.27;;;;;;;10.06;68.74;98842.28;10336069;28;20312;-63
2022/03/30 05:59:41;;;;;;;36.60;29.83;;;;;;;9.85;69.73;98838.13;10339056;28;20049;-61
2022/03/30 06:04:45;;;;;;;35.05;26.23;;;;;;;9.54;70.11;98803.97;10333371;28;20048;-61
2022/03/30 06:09:46;;;;;;;32.30;28.13;;;;;;;9.31;71.90;98802.78;10335228;28;20052;-62
2022/03/30 06:14:49;;;;;;;34.88;28.80;;;;;;;9.36;72.42;98840.34;10338177;28;20122;-60
2022/03/30 06:19:53;;;;;;;34.05;27.98;;;;;;;9.36;72.15;98843.81;10334751;28;20107;-60
2022/03/30 06:24:54;;;;;;;32.83;26.55;;;;;;;9.13;72.44;98819.53;10337152;28;20168;-61
2022/03/30 06:29:55;;;;;;;37.45;28.55;;;;;;;9.37;72.70;98849.97;10336719;28;20896;-60
2022/03/30 06:34:57;;;;;;;33.63;27.67;;;;;;;9.46;73.40;98849.06;10334645;28;20921;-60
2022/03/30 06:39:58;;;;;;;37.13;29.02;;;;;;;9.35;73.25;98849.28;10337186;28;20052;-60
2022/03/30 06:45:00;;;;;;;35.47;28.40;;;;;;;9.20;74.43;98860.44;10333796;28;20049;-61
2022/03/30 06:50:01;;;;;;;35.00;28.05;;;;;;;9.22;72.39;98816.94;10333177;28;20131;-63
2022/03/30 06:55:06;;;;;;;36.03;27.92;;;;;;;9.29;73.67;98863.16;10334526;28;20080;-62
2022/03/30 07:00:12;;;;;;;34.72;26.95;;;;;;;9.41;72.94;98861.97;10332882;28;20061;-61
2022/03/30 07:05:13;;;;;;;36.83;27.88;;;;;;;9.48;73.48;98855.06;10331790;28;20050;-61
2022/03/30 07:10:15;;;;;;;36.58;27.55;;;;;;;9.49;72.46;98851.44;10338651;28;20089;-60
2022/03/30 07:15:19;;;;;;;31.63;27.40;;;;;;;9.16;73.64;98821.88;10350607;28;20057;-60
2022/03/30 07:20:22;;;;;;;37.23;28.63;;;;;;;9.49;73.70;98859.41;10345993;28;20822;-61
2022/03/30 07:25:25;;;;;;;35.13;27.90;;;;;;;9.54;73.82;98846.47;10349646;28;20584;-62
2022/03/30 07:30:26;;;;;;;32.97;28.40;;;;;;;9.63;73.52;98846.59;10357546;28;20067;-62
2022/03/30 07:35:29;;;;;;;33.50;28.23;;;;;;;9.75;72.56;98849.84;10356984;28;20049;-61
2022/03/30 07:40:32;;;;;;;35.08;28.60;;;;;;;9.83;73.40;98850.75;10351254;28;20065;-61
2022/03/30 07:45:34;;;;;;;38.63;28.10;;;;;;;9.80;72.54;98823.63;10347276;28;20054;-60
2022/03/30 07:50:36;;;;;;;32.30;26.55;;;;;;;10.02;73.12;98843.59;10347735;28;20170;-60
2022/03/30 07:55:39;;;;;;;32.60;26.98;;;;;;;10.11;72.33;98831.19;10346988;28;20046;-60
2022/03/30 08:00:41;;;;;;;32.30;27.45;;;;;;;10.26;72.11;98843.75;10346084;28;20049;-60
2022/03/30 08:05:42;;;;;;;37.45;29.67;;;;;;;10.36;71.71;98845.53;10347568;28;20056;-61
2022/03/30 08:10:44;;;;;;;33.13;25.40;;;;;;;10.46;70.87;98848.06;10350469;28;20057;-61
2022/03/30 08:15:46;;;;;;;30.27;25.85;;;;;;;10.25;70.68;98812.84;10349650;28;20070;-61
2022/03/30 08:26:07;;;;;;;31.02;26.30;;;;;;;10.82;70.09;98855.91;10341726;28;20045;-62
2022/03/30 08:31:09;;;;;;;36.08;27.35;;;;;;;10.98;69.74;98847.16;10337932;28;20073;-61
2022/03/30 08:36:11;;;;;;;30.10;24.33;;;;;;;10.81;68.67;98848.91;10344080;28;20779;-62
2022/03/30 08:41:12;;;;;;;32.05;25.63;;;;;;;10.69;69.86;98846.53;10340498;28;20136;-62
2022/03/30 08:46:14;;;;;;;30.92;25.13;;;;;;;11.10;69.08;98853.88;10337657;28;20518;-62
2022/03/30 08:51:17;;;;;;;34.30;27.80;;;;;;;11.51;68.12;98848.63;10336768;28;20072;-63
2022/03/30 08:56:19;;;;;;;30.52;26.02;;;;;;;11.83;66.70;98844.38;10340957;28;20060;-63
2022/03/30 09:01:22;;;;;;;29.05;25.52;;;;;;;11.93;65.82;98839.69;10331992;28;20148;-63
2022/03/30 09:06:46;;;;;;;30.67;24.70;;;;;;;12.05;64.73;98837.53;10338259;28;21000;-62
2022/03/30 09:11:55;;;;;;;30.98;26.15;;;;;;;11.97;65.00;98841.03;10338225;28;20561;-62
2022/03/30 09:17:06;;;;;;;30.77;25.30;;;;;;;11.81;65.34;98843.69;10341362;28;20060;-62
2022/03/30 09:22:10;;;;;;;26.40;23.20;;;;;;;11.49;65.72;98818.66;10338859;28;20049;-62
2022/03/30 09:27:13;;;;;;;26.35;23.25;;;;;;;11.46;66.45;98827.00;10333656;28;20119;-63
2022/03/30 09:32:15;;;;;;;28.70;23.75;;;;;;;11.43;65.99;98832.66;10339719;28;20077;-62
2022/03/30 09:37:17;;;;;;;27.23;23.17;;;;;;;11.58;66.17;98825.66;10337016;28;20050;-62
2022/03/30 09:42:20;;;;;;;26.25;23.42;;;;;;;11.86;64.57;98822.69;10338503;28;20056;-62
2022/03/30 09:47:23;;;;;;;26.48;23.08;;;;;;;11.98;63.79;98826.72;10339467;28;20049;-62
2022/03/30 09:52:28;;;;;;;27.35;22.67;;;;;;;12.15;63.05;98816.03;10332981;28;20045;-62
2022/03/30 09:57:32;;;;;;;23.75;21.02;;;;;;;12.37;62.87;98826.00;10336455;28;20045;-62
2022/03/30 10:02:39;;;;;;;23.73;21.13;;;;;;;12.58;61.60;98794.41;10339637;28;21076;-62
2022/03/30 10:07:42;;;;;;;23.80;21.13;;;;;;;12.52;61.29;98811.94;10342246;28;20352;-63
2022/03/30 10:12:43;;;;;;;23.75;20.58;;;;;;;12.21;62.72;98804.69;10338192;28;20496;-62
2022/03/30 10:17:45;;;;;;;25.45;21.85;;;;;;;12.09;62.54;98801.53;10336754;28;20163;-62
2022/03/30 10:23:15;;;;;;;24.38;21.10;;;;;;;12.07;62.78;98792.03;10338593;28;20056;-63
2022/03/30 10:28:21;;;;;;;27.60;23.65;;;;;;;11.96;62.89;98790.53;10325367;28;20054;-62
2022/03/30 10:33:36;;;;;;;25.65;22.23;;;;;;;11.94;63.77;98793.38;10335956;28;20339;-63
2022/03/30 10:39:14;;;;;;;26.98;23.25;;;;;;;11.97;63.03;98790.38;10338508;28;20049;-63
2022/03/30 10:44:59;;;;;;;25.08;20.42;;;;;;;12.03;62.73;98781.69;10335320;28;22397;-62
2022/03/30 10:50:02;;;;;;;22.98;20.25;;;;;;;12.38;61.37;98778.78;10336418;28;20125;-63
2022/03/30 10:55:13;;;;;;;21.77;19.45;;;;;;;12.48;60.38;98778.59;10336703;28;20164;-62
2022/03/30 11:00:19;;;;;;;22.52;19.60;;;;;;;12.61;60.53;98770.91;10338708;28;20814;-62
2022/03/30 11:05:30;;;;;;;22.17;19.83;;;;;;;12.73;59.64;98772.16;10335145;28;20057;-62
2022/03/30 11:10:49;;;;;;;21.80;17.98;;;;;;;12.58;59.96;98755.22;10343373;28;20059;-63
2022/03/30 11:16:04;;;;;;;22.55;17.88;;;;;;;12.76;58.57;98738.97;10343865;28;20053;-60
2022/03/30 11:21:09;;;;;;;21.00;18.65;;;;;;;12.77;58.64;98750.47;10344010;28;20053;-62
2022/03/30 11:26:10;;;;;;;19.17;16.92;;;;;;;12.94;57.87;98749.38;10341271;28;20151;-62
2022/03/30 11:31:23;;;;;;;18.10;16.25;;;;;;;13.12;57.15;98753.59;10340069;28;20058;-62
2022/03/30 11:36:28;;;;;;;16.75;15.02;;;;;;;13.08;55.73;98745.94;10340396;28;20142;-62
2022/03/30 11:41:30;;;;;;;17.35;15.20;;;;;;;13.15;55.80;98737.22;10339763;28;20635;-61
2022/03/30 11:46:33;;;;;;;16.15;14.40;;;;;;;17.02;45.51;98710.28;10341659;28;20582;-61
2022/03/30 11:51:36;;;;;;;14.38;12.88;;;;;;;16.76;44.81;98720.69;10340984;28;20049;-61
2022/03/30 11:56:37;;;;;;;12.98;11.68;;;;;;;15.88;45.80;98729.31;10340455;28;20777;-62
2022/03/30 12:01:39;;;;;;;15.00;12.18;;;;;;;14.47;50.36;98737.72;10349090;28;20137;-60
2022/03/30 12:06:47;;;;;;;13.82;12.50;;;;;;;13.63;52.69;98735.22;10343794;28;22487;-64
2022/03/30 12:11:49;;;;;;;30.92;15.05;;;;;;;13.42;53.46;98728.72;10347680;28;20120;-63
2022/03/30 12:16:52;;;;;;;17.45;15.63;;;;;;;13.35;53.54;98732.28;10344867;28;20053;-61
2022/03/30 12:21:54;;;;;;;19.88;16.08;;;;;;;13.35;53.50;98726.94;10341659;28;20527;-61
2022/03/30 12:26:59;;;;;;;15.95;14.07;;;;;;;13.43;52.79;98729.53;10341002;28;20505;-61
2022/03/30 12:32:02;;;;;;;14.73;12.63;;;;;;;13.21;52.35;98720.47;10338340;28;20457;-61
2022/03/30 12:37:06;;;;;;;14.73;13.23;;;;;;;13.17;51.54;98719.19;10345825;28;20058;-61
2022/03/30 12:42:25;;;;;;;16.50;13.38;;;;;;;13.24;52.13;98709.44;10343347;28;20050;-61
2022/03/30 12:47:33;;;;;;;13.45;12.10;;;;;;;13.26;51.87;98715.44;10343779;28;20423;-61
2022/03/30 12:52:44;;;;;;;17.02;13.48;;;;;;;13.26;51.34;98707.44;10342081;28;20053;-61
2022/03/30 12:58:18;;;;;;;17.33;13.63;;;;;;;13.22;51.30;98706.09;10339999;28;20087;-61
2022/03/30 13:03:25;;;;;;;14.85;13.25;;;;;;;13.74;49.41;98705.38;10342144;28;20611;-61
2022/03/30 13:08:27;;;;;;;15.30;13.45;;;;;;;14.59;48.05;98668.47;10341094;28;20140;-61
2022/03/30 13:13:33;;;;;;;15.63;13.65;;;;;;;18.37;38.36;98700.16;10344084;28;20526;-68
2022/03/30 13:18:34;;;;;;;15.65;13.52;;;;;;;18.90;35.68;98660.56;10342625;28;20120;-61
2022/03/30 13:23:45;;;;;;;11.77;10.65;;;;;;;19.89;35.21;98673.50;10338972;28;20729;-61
2022/03/30 13:28:46;;;;;;;12.10;10.88;;;;;;;20.64;32.45;98667.03;10343135;28;20151;-62
2022/03/30 13:33:48;;;;;;;10.93;9.82;;;;;;;21.24;32.78;98654.56;10339965;28;20053;-60
2022/03/30 13:38:52;;;;;;;11.30;10.20;;;;;;;20.97;31.91;98642.28;10341083;28;20133;-61
2022/03/30 13:44:01;;;;;;;14.93;10.95;;;;;;;20.66;32.85;98646.88;10342558;28;20056;-61
2022/03/30 13:49:04;;;;;;;10.98;9.23;;;;;;;20.73;32.19;98630.56;10338794;28;20049;-60
2022/03/30 13:54:05;;;;;;;;;;;;;;;20.34;33.26;98642.69;10338251;28;20483;-61
2022/03/30 13:59:07;;;;;;;12.48;10.27;;;;;;;19.52;34.82;98635.63;10338027;28;19959;-61
2022/03/30 14:04:08;;;;;;;12.48;10.40;;;;;;;18.87;35.92;98636.69;10338305;28;20164;-60
2022/03/30 14:09:09;;;;;;;14.25;11.18;;;;;;;18.52;36.19;98620.91;10339618;28;20273;-60
2022/03/30 14:14:11;;;;;;;12.27;11.07;;;;;;;17.97;36.69;98587.16;10340297;28;20053;-61
2022/03/30 14:19:13;;;;;;;12.95;11.40;;;;;;;17.62;35.56;98584.72;10338061;28;20207;-61
2022/03/30 14:24:15;;;;;;;12.77;10.35;;;;;;;17.79;36.67;98611.19;10343763;28;20049;-61
2022/03/30 14:29:16;;;;;;;12.60;10.73;;;;;;;17.69;35.98;98605.44;10337914;28;20408;-62
2022/03/30 14:34:18;;;;;;;11.15;10.05;;;;;;;17.11;36.91;98604.22;10338934;28;20259;-64
2022/03/30 14:39:19;;;;;;;12.32;10.40;;;;;;;16.90;37.26;98597.16;10345146;28;20045;-62
2022/03/30 14:44:21;;;;;;;12.70;11.38;;;;;;;16.39;38.17;98606.53;10341545;28;20282;-62
2022/03/30 14:49:22;;;;;;;11.27;10.10;;;;;;;16.49;38.42;98596.22;10339612;28;20069;-61
2022/03/30 14:54:24;;;;;;;12.88;10.88;;;;;;;16.29;37.87;98587.28;10339790;28;20068;-63
2022/03/30 14:59:25;;;;;;;14.65;11.40;;;;;;;16.17;38.40;98574.44;10337880;28;20602;-62
2022/03/30 15:04:27;;;;;;;12.93;11.63;;;;;;;16.05;38.89;98578.75;10335877;28;20046;-60
2022/03/30 15:09:29;;;;;;;11.55;10.45;;;;;;;15.92;39.36;98557.22;10335531;28;20160;-63
2022/03/30 15:14:31;;;;;;;12.75;9.93;;;;;;;16.04;38.91;98551.06;10339579;28;20501;-64
2022/03/30 15:19:33;;;;;;;12.45;11.15;;;;;;;15.86;38.60;98562.31;10337300;28;20127;-63
2022/03/30 15:24:34;;;;;;;11.70;10.25;;;;;;;15.57;39.06;98560.72;10335041;28;20197;-63
2022/03/30 15:29:36;;;;;;;12.18;10.43;;;;;;;15.07;40.12;98566.09;10334680;28;20111;-63
2022/03/30 15:34:37;;;;;;;10.80;9.70;;;;;;;15.00;40.07;98563.38;10342911;28;20882;-63
2022/03/30 15:39:39;;;;;;;11.02;9.55;;;;;;;14.99;41.16;98568.94;10342170;28;20184;-63
2022/03/30 15:44:40;;;;;;;11.30;9.38;;;;;;;14.44;41.84;98534.63;10345207;28;20611;-61
2022/03/30 15:49:42;;;;;;;14.65;10.60;;;;;;;14.32;41.51;98568.25;10342537;28;20613;-61
2022/03/30 15:54:47;;;;;;;12.10;10.63;;;;;;;14.28;40.75;98524.16;10341236;28;20497;-62
2022/03/30 15:59:49;;;;;;;10.30;9.15;;;;;;;14.58;41.00;98557.00;10340610;28;20061;-61
2022/03/30 16:04:50;;;;;;;10.57;9.13;;;;;;;14.68;39.45;98562.06;10341910;28;20146;-60
2022/03/30 16:09:52;;;;;;;10.88;9.13;;;;;;;14.65;39.53;98562.44;10338059;28;20462;-62
2022/03/30 16:14:53;;;;;;;12.55;9.77;;;;;;;14.50;40.41;98552.59;10338804;28;20041;-62
2022/03/30 16:20:17;;;;;;;10.23;9.23;;;;;;;14.25;41.61;98552.13;10334351;28;20209;-61
2022/03/30 16:25:18;;;;;;;11.75;10.55;;;;;;;14.09;43.21;98553.16;10342463;28;20169;-63
2022/03/30 16:30:20;;;;;;;11.70;10.00;;;;;;;13.64;43.82;98517.63;10346087;28;20045;-63
2022/03/30 16:35:22;;;;;;;11.15;9.77;;;;;;;13.56;44.00;98536.47;10342105;28;20128;-63
2022/03/30 16:40:23;;;;;;;11.52;10.32;;;;;;;13.60;44.08;98561.78;10346635;28;20148;-62
2022/03/30 16:45:25;;;;;;;10.25;9.18;;;;;;;13.51;44.13;98561.06;10339357;28;20049;-62
2022/03/30 16:50:27;;;;;;;12.05;10.82;;;;;;;13.39;44.25;98566.03;10348228;28;20053;-63
2022/03/30 16:55:28;;;;;;;12.40;10.70;;;;;;;13.21;44.38;98560.16;10343462;28;20153;-61
2022/03/30 17:00:32;;;;;;;11.65;10.55;;;;;;;12.88;45.66;98565.78;10344049;28;20045;-62
2022/03/30 17:05:34;;;;;;;12.82;11.50;;;;;;;12.70;44.86;98568.78;10343146;28;20057;-61
2022/03/30 17:10:36;;;;;;;11.43;10.23;;;;;;;12.63;45.24;98568.66;10342379;28;20199;-63
2022/03/30 17:15:37;;;;;;;13.23;11.90;;;;;;;12.50;45.50;98577.25;10345861;28;20049;-63
2022/03/30 17:20:39;;;;;;;12.15;10.93;;;;;;;12.39;45.79;98556.31;10344143;28;20042;-63
2022/03/30 17:25:41;;;;;;;11.77;10.10;;;;;;;12.34;46.17;98578.19;10346152;28;21144;-62
2022/03/30 17:30:42;;;;;;;12.30;10.70;;;;;;;12.03;46.64;98531.00;10340027;28;20534;-61
2022/03/30 17:35:44;;;;;;;12.20;10.95;;;;;;;11.89;46.94;98533.56;10337807;28;20155;-62
2022/03/30 17:40:45;;;;;;;11.25;10.15;;;;;;;11.94;47.11;98574.72;10333879;28;20050;-62
2022/03/30 17:45:47;;;;;;;12.05;10.73;;;;;;;11.50;48.10;98540.56;10339731;28;20338;-62
2022/03/30 17:56:08;;;;;;;10.73;9.63;;;;;;;11.69;49.92;98584.63;10334309;28;21926;-62
2022/03/30 18:01:10;;;;;;;11.48;10.25;;;;;;;11.46;49.09;98556.03;10334685;28;20260;-62
2022/03/30 18:06:11;;;;;;;11.48;10.25;;;;;;;11.50;49.47;98565.34;10337053;28;20095;-62
2022/03/30 18:11:15;;;;;;;10.60;9.50;;;;;;;11.66;49.67;98592.97;10340856;28;20805;-63
2022/03/30 18:16:16;;;;;;;10.60;9.32;;;;;;;11.70;49.47;98594.28;10341822;28;20052;-62
2022/03/30 18:21:19;;;;;;;12.88;10.07;;;;;;;11.64;49.77;98595.78;10341383;28;20045;-63
2022/03/30 18:26:21;;;;;;;12.05;10.68;;;;;;;11.36;49.94;98568.72;10337847;28;20050;-61
2022/03/30 18:31:22;;;;;;;12.50;11.20;;;;;;;11.53;50.55;98609.50;10336576;28;20061;-62
2022/03/30 18:36:24;;;;;;;11.98;10.15;;;;;;;11.42;50.84;98596.50;10343733;28;20057;-61
2022/03/30 18:41:26;;;;;;;10.45;9.45;;;;;;;11.39;50.99;98612.84;10341241;28;20049;-62
2022/03/30 18:46:28;;;;;;;12.05;10.85;;;;;;;11.32;51.47;98620.69;10341691;28;20054;-62
2022/03/30 18:51:32;;;;;;;11.73;10.43;;;;;;;11.28;51.64;98616.69;10338022;28;20049;-62
2022/03/30 18:56:33;;;;;;;11.95;9.95;;;;;;;11.21;52.01;98610.38;10340555;28;20058;-62
2022/03/30 19:01:35;;;;;;;11.43;10.23;;;;;;;11.13;52.23;98616.53;10338272;28;20057;-61
2022/03/30 19:06:37;;;;;;;11.93;10.38;;;;;;;11.06;52.44;98623.50;10338863;28;20076;-61
2022/03/30 19:11:39;;;;;;;12.32;10.82;;;;;;;10.97;52.74;98614.69;10342552;28;20129;-61
2022/03/30 19:16:41;;;;;;;11.98;10.77;;;;;;;10.95;53.51;98622.03;10339461;28;20144;-61
2022/03/30 19:21:43;;;;;;;12.18;11.07;;;;;;;10.67;53.35;98597.53;10338030;28;20398;-63
2022/03/30 19:26:44;;;;;;;12.63;11.23;;;;;;;10.71;53.68;98618.34;10337752;28;20057;-62
2022/03/30 19:31:46;;;;;;;13.35;12.00;;;;;;;10.60;54.19;98622.16;10325609;28;20068;-63
2022/03/30 19:36:47;;;;;;;13.77;12.38;;;;;;;10.54;54.07;98625.47;10335243;28;20098;-63
2022/03/30 19:41:50;;;;;;;13.00;11.70;;;;;;;10.42;54.36;98622.28;10337535;28;20523;-63
2022/03/30 19:46:52;;;;;;;14.10;12.52;;;;;;;10.38;54.52;98612.13;10337604;28;20064;-62
2022/03/30 19:51:53;;;;;;;14.80;13.23;;;;;;;10.27;54.72;98614.06;10334720;28;20056;-62
2022/03/30 19:56:55;;;;;;;13.73;12.20;;;;;;;9.99;55.33;98586.06;10333083;28;20053;-63
2022/03/30 20:01:56;;;;;;;14.48;12.95;;;;;;;10.21;55.15;98624.53;10335683;28;20060;-62
2022/03/30 20:06:58;;;;;;;13.43;11.88;;;;;;;10.20;55.20;98623.66;10341211;28;20049;-61
2022/03/30 20:11:59;;;;;;;14.27;12.75;;;;;;;10.06;55.20;98600.38;10337567;28;20046;-61
2022/03/30 20:17:02;;;;;;;14.57;13.07;;;;;;;10.25;55.08;98621.38;10339822;28;20063;-62
2022/03/30 20:22:03;;;;;;;14.27;12.88;;;;;;;10.05;55.39;98578.25;10347815;28;20160;-62
2022/03/30 20:27:05;;;;;;;13.90;12.45;;;;;;;10.27;54.99;98615.91;10346353;28;20516;-62
2022/03/30 20:32:08;;;;;;;17.50;13.23;;;;;;;10.26;55.07;98620.34;10346180;28;20049;-62
2022/03/30 20:37:09;;;;;;;15.43;13.27;;;;;;;10.27;55.36;98613.22;10346204;28;20057;-64
2022/03/30 20:42:11;;;;;;;15.10;13.40;;;;;;;10.24;55.16;98610.91;10344752;28;20042;-64
2022/03/30 20:47:12;;;;;;;13.77;12.38;;;;;;;10.13;55.33;98621.81;10353430;28;20064;-64
2022/03/30 20:52:15;;;;;;;14.90;13.25;;;;;;;10.00;56.11;98616.97;10355322;28;20462;-63
2022/03/30 20:57:23;;;;;;;15.95;14.00;;;;;;;9.97;56.01;98617.25;10356445;28;20070;-63
2022/03/30 21:02:25;;;;;;;14.90;13.40;;;;;;;9.97;56.29;98622.56;10358130;28;20124;-63
2022/03/30 21:07:27;;;;;;;15.88;14.20;;;;;;;9.87;56.73;98620.06;10360493;28;20050;-63
2022/03/30 21:12:29;;;;;;;15.85;14.23;;;;;;;9.57;56.90;98595.66;10356682;28;20109;-64
2022/03/30 21:17:30;;;;;;;16.83;14.70;;;;;;;9.66;57.13;98629.22;10354113;28;20048;-63
2022/03/30 21:22:32;;;;;;;15.48;13.88;;;;;;;9.61;57.30;98631.53;10359687;28;20132;-65
2022/03/30 21:27:34;;;;;;;16.98;14.98;;;;;;;9.49;57.36;98625.66;10353016;28;20148;-63
2022/03/30 21:32:35;;;;;;;15.70;14.10;;;;;;;9.42;57.46;98626.44;10349579;28;20148;-62
2022/03/30 21:37:38;;;;;;;14.82;13.18;;;;;;;9.30;57.87;98618.72;10351426;28;20393;-62
2022/03/30 21:42:40;;;;;;;15.63;13.88;;;;;;;9.20;58.39;98623.28;10350278;28;20058;-61
2022/03/30 21:47:43;;;;;;;16.17;14.50;;;;;;;9.30;57.90;98609.94;10349491;28;20104;-62
2022/03/30 21:52:44;;;;;;;16.08;14.35;;;;;;;9.20;58.12;98594.94;10354274;28;20046;-64
2022/03/30 21:57:46;;;;;;;16.27;13.98;;;;;;;9.06;58.38;98597.31;10354147;28;20057;-62
2022/03/30 22:02:49;;;;;;;16.58;14.55;;;;;;;8.91;59.07;98599.69;10356364;28;20079;-62
2022/03/30 22:07:51;;;;;;;16.70;14.90;;;;;;;8.63;58.84;98567.94;10351805;28;20056;-62
2022/03/30 22:12:53;;;;;;;16.98;15.13;;;;;;;8.75;59.30;98600.38;10347920;28;20148;-62
2022/03/30 22:17:55;;;;;;;16.45;14.75;;;;;;;8.54;59.12;98564.41;10351469;28;20049;-62
2022/03/30 22:22:56;;;;;;;15.77;14.13;;;;;;;8.82;59.06;98596.13;10350531;28;20155;-63
2022/03/30 22:27:58;;;;;;;16.92;14.55;;;;;;;8.79;59.44;98596.44;10349213;28;20801;-63
2022/03/30 22:38:22;;;;;;;15.35;13.52;;;;;;;8.87;59.22;98604.44;10347435;28;20045;-61
2022/03/30 22:43:26;;;;;;;15.90;14.20;;;;;;;8.39;59.46;98528.72;10350647;28;20089;-61
2022/03/30 22:48:28;;;;;;;15.43;13.10;;;;;;;8.84;59.29;98607.41;10349764;28;20057;-62
2022/03/30 22:53:29;;;;;;;14.38;12.88;;;;;;;8.61;59.38;98561.94;10345993;28;20121;-62
2022/03/30 22:58:32;;;;;;;13.48;12.18;;;;;;;8.61;59.51;98562.78;10349752;28;20104;-61
2022/03/30 23:03:34;;;;;;;12.57;11.10;;;;;;;8.56;59.33;98553.63;10346964;28;20124;-64
2022/03/30 23:08:36;;;;;;;13.35;12.05;;;;;;;8.54;59.70;98560.88;10348612;28;20061;-63
2022/03/30 23:13:37;;;;;;;13.65;12.20;;;;;;;8.76;59.78;98588.78;10346077;28;20073;-62
2022/03/30 23:18:39;;;;;;;13.23;11.55;;;;;;;8.71;59.94;98578.63;10350565;28;20049;-62